sensor_id;sensor_type;location;lat;lon;timestamp;pressure;altitude;pressure_sealevel;temperature;humidity
21240;BME280;10778;48.962;9.018;2023-07-09T00:01:17;99361.19;;;18.98;85.29
21240;BME280;10778;48.962;9.018;2023-07-09T00:03:44;99358.25;;;18.93;85.96
21240;BME280;10778;48.962;9.018;2023-07-09T00:06:12;99360.28;;;18.90;85.97
21240;BME280;10778;48.962;9.018;2023-07-09T00:08:43;99371.41;;;18.94;85.43
21240;BME280;10778;48.962;9.018;2023-07-09T00:11:16;99370.50;;;18.87;85.96
21240;BME280;10778;48.962;9.018;2023-07-09T00:13:42;99366.63;;;18.74;85.30
21240;BME280;10778;48.962;9.018;2023-07-09T00:16:14;99364.72;;;18.68;86.70
21240;BME280;10778;48.962;9.018;2023-07-09T00:18:42;99372.34;;;18.71;87.04
21240;BME280;10778;48.962;9.018;2023-07-09T00:21:08;99369.41;;;18.66;87.22
21240;BME280;10778;48.962;9.018;2023-07-09T00:23:34;99366.28;;;18.77;87.00
21240;BME280;10778;48.962;9.018;2023-07-09T00:26:00;99372.81;;;18.75;87.39
21240;BME280;10778;48.962;9.018;2023-07-09T00:28:28;99378.69;;;18.70;87.73
21240;BME280;10778;48.962;9.018;2023-07-09T00:30:54;99378.41;;;18.80;87.24
21240;BME280;10778;48.962;9.018;2023-07-09T00:33:20;99376.66;;;18.87;86.48
21240;BME280;10778;48.962;9.018;2023-07-09T00:35:47;99381.97;;;18.72;86.90
21240;BME280;10778;48.962;9.018;2023-07-09T00:38:19;99379.69;;;18.69;87.10
21240;BME280;10778;48.962;9.018;2023-07-09T00:41:03;99385.03;;;18.54;87.55
21240;BME280;10778;48.962;9.018;2023-07-09T00:43:34;99393.28;;;18.44;88.36
21240;BME280;10778;48.962;9.018;2023-07-09T00:48:36;99387.38;;;18.34;89.23
21240;BME280;10778;48.962;9.018;2023-07-09T00:51:14;99390.16;;;18.26;90.04
21240;BME280;10778;48.962;9.018;2023-07-09T00:53:43;99385.00;;;18.24;89.99
21240;BME280;10778;48.962;9.018;2023-07-09T00:56:14;99383.34;;;18.38;89.27
21240;BME280;10778;48.962;9.018;2023-07-09T00:58:42;99383.16;;;18.25;89.55
21240;BME280;10778;48.962;9.018;2023-07-09T01:01:15;99377.78;;;18.10;90.25
21240;BME280;10778;48.962;9.018;2023-07-09T01:03:50;99388.97;;;18.05;90.96
21240;BME280;10778;48.962;9.018;2023-07-09T01:06:25;99381.09;;;18.12;90.22
21240;BME280;10778;48.962;9.018;2023-07-09T01:08:55;99381.22;;;18.18;89.88
21240;BME280;10778;48.962;9.018;2023-07-09T01:11:22;99383.88;;;18.18;89.54
21240;BME280;10778;48.962;9.018;2023-07-09T01:13:53;99386.47;;;18.27;89.72
21240;BME280;10778;48.962;9.018;2023-07-09T01:16:20;99386.09;;;18.30;89.09
21240;BME280;10778;48.962;9.018;2023-07-09T01:18:50;99389.78;;;18.29;88.77
21240;BME280;10778;48.962;9.018;2023-07-09T01:21:16;99393.19;;;17.99;89.44
21240;BME280;10778;48.962;9.018;2023-07-09T01:23:48;99402.59;;;17.87;90.64
21240;BME280;10778;48.962;9.018;2023-07-09T01:26:18;99400.81;;;17.79;90.68
21240;BME280;10778;48.962;9.018;2023-07-09T01:28:45;99399.72;;;17.88;90.33
21240;BME280;10778;48.962;9.018;2023-07-09T01:31:12;99400.56;;;17.89;90.94
21240;BME280;10778;48.962;9.018;2023-07-09T01:33:39;99403.13;;;17.82;90.96
21240;BME280;10778;48.962;9.018;2023-07-09T01:36:11;99403.63;;;17.77;90.89
21240;BME280;10778;48.962;9.018;2023-07-09T01:38:40;99406.50;;;17.76;90.67
21240;BME280;10778;48.962;9.018;2023-07-09T01:41:06;99397.63;;;17.60;91.69
21240;BME280;10778;48.962;9.018;2023-07-09T01:43:33;99407.50;;;17.43;92.68
21240;BME280;10778;48.962;9.018;2023-07-09T01:46:00;99404.91;;;17.35;94.56
21240;BME280;10778;48.962;9.018;2023-07-09T01:48:26;99407.34;;;17.45;94.33
21240;BME280;10778;48.962;9.018;2023-07-09T01:50:53;99405.69;;;17.44;94.27
21240;BME280;10778;48.962;9.018;2023-07-09T01:53:25;99402.78;;;17.30;94.16
21240;BME280;10778;48.962;9.018;2023-07-09T01:55:52;99398.44;;;17.38;94.21
21240;BME280;10778;48.962;9.018;2023-07-09T01:58:20;99404.44;;;17.31;93.95
21240;BME280;10778;48.962;9.018;2023-07-09T02:00:50;99411.25;;;17.26;95.26
21240;BME280;10778;48.962;9.018;2023-07-09T02:03:17;99410.84;;;17.14;95.98
21240;BME280;10778;48.962;9.018;2023-07-09T02:05:43;99405.56;;;17.05;95.78
21240;BME280;10778;48.962;9.018;2023-07-09T02:08:09;99414.00;;;17.09;96.58
21240;BME280;10778;48.962;9.018;2023-07-09T02:10:35;99410.88;;;17.05;96.65
21240;BME280;10778;48.962;9.018;2023-07-09T02:13:01;99407.69;;;17.10;95.61
21240;BME280;10778;48.962;9.018;2023-07-09T02:15:27;99411.19;;;17.11;96.10
21240;BME280;10778;48.962;9.018;2023-07-09T02:17:56;99408.38;;;17.04;95.77
21240;BME280;10778;48.962;9.018;2023-07-09T02:20:24;99413.22;;;17.00;95.85
21240;BME280;10778;48.962;9.018;2023-07-09T02:22:51;99407.75;;;16.85;96.81
21240;BME280;10778;48.962;9.018;2023-07-09T02:25:18;99408.25;;;16.89;97.15
21240;BME280;10778;48.962;9.018;2023-07-09T02:27:43;99410.31;;;16.70;97.54
21240;BME280;10778;48.962;9.018;2023-07-09T02:30:10;99413.78;;;16.79;97.36
21240;BME280;10778;48.962;9.018;2023-07-09T02:32:36;99419.53;;;16.83;96.62
21240;BME280;10778;48.962;9.018;2023-07-09T02:35:04;99413.13;;;16.69;96.49
21240;BME280;10778;48.962;9.018;2023-07-09T02:37:30;99410.00;;;16.57;97.43
21240;BME280;10778;48.962;9.018;2023-07-09T02:39:56;99402.38;;;16.54;98.10
21240;BME280;10778;48.962;9.018;2023-07-09T02:42:23;99404.34;;;16.52;98.33
21240;BME280;10778;48.962;9.018;2023-07-09T02:44:50;99406.19;;;16.51;99.47
21240;BME280;10778;48.962;9.018;2023-07-09T02:47:17;99412.00;;;16.46;99.51
21240;BME280;10778;48.962;9.018;2023-07-09T02:49:44;99411.00;;;16.56;99.10
21240;BME280;10778;48.962;9.018;2023-07-09T02:52:12;99412.81;;;16.63;98.23
21240;BME280;10778;48.962;9.018;2023-07-09T02:54:38;99414.09;;;16.76;96.81
21240;BME280;10778;48.962;9.018;2023-07-09T02:57:04;99413.94;;;16.77;97.15
21240;BME280;10778;48.962;9.018;2023-07-09T02:59:30;99425.06;;;16.81;96.77
21240;BME280;10778;48.962;9.018;2023-07-09T03:01:56;99424.28;;;16.56;96.82
21240;BME280;10778;48.962;9.018;2023-07-09T03:04:23;99416.53;;;16.29;99.41
21240;BME280;10778;48.962;9.018;2023-07-09T03:06:49;99426.81;;;16.32;99.19
21240;BME280;10778;48.962;9.018;2023-07-09T03:09:15;99432.28;;;16.23;99.78
21240;BME280;10778;48.962;9.018;2023-07-09T03:11:41;99435.28;;;16.03;100.00
21240;BME280;10778;48.962;9.018;2023-07-09T03:14:07;99434.59;;;15.92;100.00
21240;BME280;10778;48.962;9.018;2023-07-09T03:16:34;99433.56;;;15.85;100.00
21240;BME280;10778;48.962;9.018;2023-07-09T03:19:01;99441.22;;;15.97;100.00
21240;BME280;10778;48.962;9.018;2023-07-09T03:21:29;99439.59;;;16.04;100.00
21240;BME280;10778;48.962;9.018;2023-07-09T03:23:56;99441.88;;;15.99;100.00
21240;BME280;10778;48.962;9.018;2023-07-09T03:26:23;99435.22;;;15.86;100.00
21240;BME280;10778;48.962;9.018;2023-07-09T03:28:52;99436.44;;;15.92;100.00
21240;BME280;10778;48.962;9.018;2023-07-09T03:31:19;99444.22;;;16.02;100.00
21240;BME280;10778;48.962;9.018;2023-07-09T03:33:49;99446.56;;;16.05;100.00
21240;BME280;10778;48.962;9.018;2023-07-09T03:36:17;99436.44;;;15.92;100.00
21240;BME280;10778;48.962;9.018;2023-07-09T03:38:44;99446.53;;;15.97;100.00
21240;BME280;10778;48.962;9.018;2023-07-09T03:41:10;99450.03;;;15.97;100.00
21240;BME280;10778;48.962;9.018;2023-07-09T03:43:36;99451.19;;;16.03;100.00
21240;BME280;10778;48.962;9.018;2023-07-09T03:46:02;99452.84;;;16.04;100.00
21240;BME280;10778;48.962;9.018;2023-07-09T03:48:29;99456.34;;;16.13;100.00
21240;BME280;10778;48.962;9.018;2023-07-09T03:50:55;99453.03;;;16.11;100.00
21240;BME280;10778;48.962;9.018;2023-07-09T03:53:21;99459.16;;;16.03;100.00
21240;BME280;10778;48.962;9.018;2023-07-09T03:55:51;99462.63;;;15.95;100.00
21240;BME280;10778;48.962;9.018;2023-07-09T03:58:18;99459.47;;;15.91;100.00
21240;BME280;10778;48.962;9.018;2023-07-09T04:00:44;99461.47;;;15.98;100.00
21240;BME280;10778;48.962;9.018;2023-07-09T04:03:10;99460.81;;;16.04;100.00
21240;BME280;10778;48.962;9.018;2023-07-09T04:05:37;99465.44;;;15.93;100.00
21240;BME280;10778;48.962;9.018;2023-07-09T04:08:04;99468.94;;;16.02;100.00
21240;BME280;10778;48.962;9.018;2023-07-09T04:10:31;99460.81;;;16.20;100.00
21240;BME280;10778;48.962;9.018;2023-07-09T04:12:57;99462.47;;;16.21;100.00
21240;BME280;10778;48.962;9.018;2023-07-09T04:15:23;99463.28;;;16.22;100.00
21240;BME280;10778;48.962;9.018;2023-07-09T04:17:49;99459.66;;;16.23;100.00
21240;BME280;10778;48.962;9.018;2023-07-09T04:20:15;99460.97;;;16.19;100.00
21240;BME280;10778;48.962;9.018;2023-07-09T04:22:41;99462.13;;;16.41;99.31
21240;BME280;10778;48.962;9.018;2023-07-09T04:25:10;99453.19;;;16.42;98.24
21240;BME280;10778;48.962;9.018;2023-07-09T04:27:37;99465.97;;;16.47;98.80
21240;BME280;10778;48.962;9.018;2023-07-09T04:30:05;99466.44;;;16.59;98.37
21240;BME280;10778;48.962;9.018;2023-07-09T04:32:31;99465.06;;;16.80;96.11
21240;BME280;10778;48.962;9.018;2023-07-09T04:34:57;99467.03;;;16.86;95.78
21240;BME280;10778;48.962;9.018;2023-07-09T04:37:23;99470.50;;;16.95;95.34
21240;BME280;10778;48.962;9.018;2023-07-09T04:39:49;99473.03;;;17.04;94.67
21240;BME280;10778;48.962;9.018;2023-07-09T04:42:16;99470.47;;;17.19;94.55
21240;BME280;10778;48.962;9.018;2023-07-09T04:44:44;99472.56;;;17.41;93.75
21240;BME280;10778;48.962;9.018;2023-07-09T04:47:11;99471.75;;;17.63;91.89
21240;BME280;10778;48.962;9.018;2023-07-09T04:49:40;99473.03;;;17.76;91.34
21240;BME280;10778;48.962;9.018;2023-07-09T04:52:08;99463.50;;;17.82;90.05
21240;BME280;10778;48.962;9.018;2023-07-09T04:54:39;99473.44;;;17.88;90.10
21240;BME280;10778;48.962;9.018;2023-07-09T04:57:06;99470.63;;;17.89;89.75
21240;BME280;10778;48.962;9.018;2023-07-09T04:59:32;99470.75;;;18.19;89.72
21240;BME280;10778;48.962;9.018;2023-07-09T05:01:58;99469.44;;;18.39;89.00
21240;BME280;10778;48.962;9.018;2023-07-09T05:04:24;99466.84;;;18.69;87.22
21240;BME280;10778;48.962;9.018;2023-07-09T05:06:50;99474.66;;;18.85;85.71
21240;BME280;10778;48.962;9.018;2023-07-09T05:09:16;99476.97;;;18.88;85.72
21240;BME280;10778;48.962;9.018;2023-07-09T05:11:42;99479.53;;;18.82;85.86
21240;BME280;10778;48.962;9.018;2023-07-09T05:14:08;99478.72;;;18.96;85.34
21240;BME280;10778;48.962;9.018;2023-07-09T05:16:34;99482.88;;;19.14;83.84
21240;BME280;10778;48.962;9.018;2023-07-09T05:19:00;99484.78;;;19.35;82.58
21240;BME280;10778;48.962;9.018;2023-07-09T05:21:26;99474.13;;;19.72;80.60
21240;BME280;10778;48.962;9.018;2023-07-09T05:23:53;99477.19;;;19.90;81.69
21240;BME280;10778;48.962;9.018;2023-07-09T05:26:19;99481.34;;;20.15;79.67
21240;BME280;10778;48.962;9.018;2023-07-09T05:28:44;99476.38;;;20.33;79.24
21240;BME280;10778;48.962;9.018;2023-07-09T05:31:10;99484.34;;;20.49;78.54
21240;BME280;10778;48.962;9.018;2023-07-09T05:33:37;99480.81;;;20.77;78.17
21240;BME280;10778;48.962;9.018;2023-07-09T05:36:04;99473.72;;;20.84;78.74
21240;BME280;10778;48.962;9.018;2023-07-09T05:38:30;99477.25;;;21.33;76.38
21240;BME280;10778;48.962;9.018;2023-07-09T05:41:03;99484.75;;;21.09;76.45
21240;BME280;10778;48.962;9.018;2023-07-09T05:43:30;99482.97;;;21.72;74.78
21240;BME280;10778;48.962;9.018;2023-07-09T05:45:56;99477.91;;;22.04;73.36
21240;BME280;10778;48.962;9.018;2023-07-09T05:48:22;99473.78;;;22.08;72.12
21240;BME280;10778;48.962;9.018;2023-07-09T05:50:52;99471.13;;;22.28;71.35
21240;BME280;10778;48.962;9.018;2023-07-09T05:53:18;99471.94;;;22.36;71.29
21240;BME280;10778;48.962;9.018;2023-07-09T05:55:44;99468.44;;;22.55;70.25
21240;BME280;10778;48.962;9.018;2023-07-09T05:58:10;99478.97;;;22.77;70.04
21240;BME280;10778;48.962;9.018;2023-07-09T06:00:36;99470.22;;;23.09;68.78
21240;BME280;10778;48.962;9.018;2023-07-09T06:03:03;99476.31;;;23.43;67.60
21240;BME280;10778;48.962;9.018;2023-07-09T06:05:33;99470.53;;;23.78;65.99
21240;BME280;10778;48.962;9.018;2023-07-09T06:07:59;99468.25;;;23.43;67.06
21240;BME280;10778;48.962;9.018;2023-07-09T06:10:25;99476.31;;;23.82;66.21
21240;BME280;10778;48.962;9.018;2023-07-09T06:12:51;99476.22;;;24.27;64.56
21240;BME280;10778;48.962;9.018;2023-07-09T06:15:18;99471.13;;;24.19;64.22
21240;BME280;10778;48.962;9.018;2023-07-09T06:17:44;99478.34;;;24.19;65.05
21240;BME280;10778;48.962;9.018;2023-07-09T06:20:10;99474.31;;;24.09;65.37
21240;BME280;10778;48.962;9.018;2023-07-09T06:22:36;99469.31;;;24.38;64.18
21240;BME280;10778;48.962;9.018;2023-07-09T06:25:03;99476.59;;;24.82;63.34
21240;BME280;10778;48.962;9.018;2023-07-09T06:27:29;99472.41;;;24.86;63.83
21240;BME280;10778;48.962;9.018;2023-07-09T06:29:55;99466.94;;;25.30;61.71
21240;BME280;10778;48.962;9.018;2023-07-09T06:32:21;99469.28;;;25.26;61.74
21240;BME280;10778;48.962;9.018;2023-07-09T06:34:47;99462.63;;;25.78;60.10
21240;BME280;10778;48.962;9.018;2023-07-09T06:37:14;99462.69;;;26.14;60.22
21240;BME280;10778;48.962;9.018;2023-07-09T06:39:40;99460.28;;;26.60;59.19
21240;BME280;10778;48.962;9.018;2023-07-09T06:42:06;99457.00;;;26.82;57.76
21240;BME280;10778;48.962;9.018;2023-07-09T06:44:53;99460.91;;;26.86;57.30
21240;BME280;10778;48.962;9.018;2023-07-09T06:47:19;99458.41;;;27.08;57.92
21240;BME280;10778;48.962;9.018;2023-07-09T06:49:45;99451.91;;;27.50;56.25
21240;BME280;10778;48.962;9.018;2023-07-09T06:52:11;99460.22;;;27.20;57.13
21240;BME280;10778;48.962;9.018;2023-07-09T06:54:37;99460.50;;;26.94;57.29
21240;BME280;10778;48.962;9.018;2023-07-09T06:57:03;99453.97;;;27.31;57.03
21240;BME280;10778;48.962;9.018;2023-07-09T06:59:30;99455.59;;;27.90;56.31
21240;BME280;10778;48.962;9.018;2023-07-09T07:01:55;99460.13;;;27.85;55.64
21240;BME280;10778;48.962;9.018;2023-07-09T07:04:21;99457.78;;;28.22;54.19
21240;BME280;10778;48.962;9.018;2023-07-09T07:06:47;99457.06;;;28.44;53.45
21240;BME280;10778;48.962;9.018;2023-07-09T07:09:14;99449.94;;;28.77;52.68
21240;BME280;10778;48.962;9.018;2023-07-09T07:11:40;99452.44;;;28.10;53.77
21240;BME280;10778;48.962;9.018;2023-07-09T07:14:06;99452.16;;;28.63;52.96
21240;BME280;10778;48.962;9.018;2023-07-09T07:16:32;99449.66;;;28.79;51.34
21240;BME280;10778;48.962;9.018;2023-07-09T07:18:58;99437.66;;;29.59;51.03
21240;BME280;10778;48.962;9.018;2023-07-09T07:21:24;99434.91;;;29.86;49.83
21240;BME280;10778;48.962;9.018;2023-07-09T07:23:50;99435.50;;;29.61;51.02
21240;BME280;10778;48.962;9.018;2023-07-09T07:26:16;99435.44;;;29.83;50.16
21240;BME280;10778;48.962;9.018;2023-07-09T07:28:42;99434.34;;;30.12;49.39
21240;BME280;10778;48.962;9.018;2023-07-09T07:31:09;99435.25;;;30.28;49.35
21240;BME280;10778;48.962;9.018;2023-07-09T07:33:36;99435.16;;;30.55;48.27
21240;BME280;10778;48.962;9.018;2023-07-09T07:36:05;99422.91;;;30.96;48.08
21240;BME280;10778;48.962;9.018;2023-07-09T07:38:32;99428.56;;;30.41;48.00
21240;BME280;10778;48.962;9.018;2023-07-09T07:40:58;99415.16;;;31.35;46.28
21240;BME280;10778;48.962;9.018;2023-07-09T07:43:24;99422.91;;;31.01;47.07
21240;BME280;10778;48.962;9.018;2023-07-09T07:45:50;99416.31;;;30.86;46.81
21240;BME280;10778;48.962;9.018;2023-07-09T07:48:16;99419.59;;;30.88;46.94
21240;BME280;10778;48.962;9.018;2023-07-09T07:50:42;99414.50;;;31.02;46.58
21240;BME280;10778;48.962;9.018;2023-07-09T07:53:08;99413.53;;;31.34;46.09
21240;BME280;10778;48.962;9.018;2023-07-09T07:55:36;99417.63;;;31.47;46.51
21240;BME280;10778;48.962;9.018;2023-07-09T07:58:02;99399.69;;;31.62;45.33
21240;BME280;10778;48.962;9.018;2023-07-09T08:00:32;99403.50;;;31.66;45.49
21240;BME280;10778;48.962;9.018;2023-07-09T08:02:58;99403.25;;;31.83;44.95
21240;BME280;10778;48.962;9.018;2023-07-09T08:05:24;99404.59;;;31.91;45.60
21240;BME280;10778;48.962;9.018;2023-07-09T08:07:51;99399.69;;;32.09;44.33
21240;BME280;10778;48.962;9.018;2023-07-09T08:10:17;99393.00;;;32.82;42.73
21240;BME280;10778;48.962;9.018;2023-07-09T08:12:43;99385.41;;;33.29;42.17
21240;BME280;10778;48.962;9.018;2023-07-09T08:15:10;99393.53;;;33.45;42.15
21240;BME280;10778;48.962;9.018;2023-07-09T08:17:36;99394.59;;;33.84;42.37
21240;BME280;10778;48.962;9.018;2023-07-09T08:20:02;99395.69;;;32.87;43.63
21240;BME280;10778;48.962;9.018;2023-07-09T08:22:28;99396.19;;;33.50;42.90
21240;BME280;10778;48.962;9.018;2023-07-09T08:24:54;99394.91;;;33.37;42.24
21240;BME280;10778;48.962;9.018;2023-07-09T08:27:20;99389.19;;;33.39;42.49
21240;BME280;10778;48.962;9.018;2023-07-09T08:29:46;99389.31;;;33.58;41.96
21240;BME280;10778;48.962;9.018;2023-07-09T08:32:13;99391.34;;;33.42;41.07
21240;BME280;10778;48.962;9.018;2023-07-09T08:34:40;99395.66;;;33.03;42.37
21240;BME280;10778;48.962;9.018;2023-07-09T08:37:08;99391.94;;;33.73;41.44
21240;BME280;10778;48.962;9.018;2023-07-09T08:39:35;99389.31;;;33.93;40.87
21240;BME280;10778;48.962;9.018;2023-07-09T08:42:05;99388.22;;;33.59;41.69
21240;BME280;10778;48.962;9.018;2023-07-09T08:47:14;99376.44;;;34.28;39.06
21240;BME280;10778;48.962;9.018;2023-07-09T08:49:58;99379.44;;;33.67;40.00
21240;BME280;10778;48.962;9.018;2023-07-09T08:52:37;99373.38;;;34.35;38.45
21240;BME280;10778;48.962;9.018;2023-07-09T08:55:19;99373.66;;;34.57;38.80
21240;BME280;10778;48.962;9.018;2023-07-09T08:57:53;99377.38;;;34.42;37.94
21240;BME280;10778;48.962;9.018;2023-07-09T09:00:33;99381.69;;;34.73;37.65
21240;BME280;10778;48.962;9.018;2023-07-09T09:05:49;99385.97;;;34.79;37.55
21240;BME280;10778;48.962;9.018;2023-07-09T09:11:20;99371.69;;;35.26;36.25
21240;BME280;10778;48.962;9.018;2023-07-09T09:13:49;99372.41;;;34.93;35.96
21240;BME280;10778;48.962;9.018;2023-07-09T09:16:24;99375.25;;;35.79;36.09
21240;BME280;10778;48.962;9.018;2023-07-09T09:18:55;99371.38;;;35.66;34.39
21240;BME280;10778;48.962;9.018;2023-07-09T09:21:26;99377.47;;;35.77;34.60
21240;BME280;10778;48.962;9.018;2023-07-09T09:23:58;99379.13;;;35.58;35.61
21240;BME280;10778;48.962;9.018;2023-07-09T09:26:32;99373.47;;;35.55;35.36
21240;BME280;10778;48.962;9.018;2023-07-09T09:28:59;99375.06;;;35.17;36.29
21240;BME280;10778;48.962;9.018;2023-07-09T09:31:27;99375.00;;;35.03;37.57
21240;BME280;10778;48.962;9.018;2023-07-09T09:33:54;99362.91;;;35.95;35.46
21240;BME280;10778;48.962;9.018;2023-07-09T09:36:25;99366.50;;;35.63;35.54
21240;BME280;10778;48.962;9.018;2023-07-09T09:38:52;99361.72;;;35.68;35.80
21240;BME280;10778;48.962;9.018;2023-07-09T09:41:21;99364.59;;;36.24;35.22
21240;BME280;10778;48.962;9.018;2023-07-09T09:43:48;99365.97;;;34.84;36.92
21240;BME280;10778;48.962;9.018;2023-07-09T09:46:20;99367.41;;;36.05;35.58
21240;BME280;10778;48.962;9.018;2023-07-09T09:48:49;99370.59;;;36.54;34.81
21240;BME280;10778;48.962;9.018;2023-07-09T09:51:17;99377.97;;;35.07;37.87
21240;BME280;10778;48.962;9.018;2023-07-09T09:53:58;99372.34;;;35.37;36.48
21240;BME280;10778;48.962;9.018;2023-07-09T09:56:33;99365.09;;;36.12;34.89
21240;BME280;10778;48.962;9.018;2023-07-09T09:59:00;99355.69;;;35.33;36.18
21240;BME280;10778;48.962;9.018;2023-07-09T10:01:58;99357.13;;;35.11;35.87
21240;BME280;10778;48.962;9.018;2023-07-09T10:08:43;99350.03;;;35.96;34.38
21240;BME280;10778;48.962;9.018;2023-07-09T10:13:50;99342.38;;;36.40;34.33
21240;BME280;10778;48.962;9.018;2023-07-09T10:16:34;99342.78;;;36.33;34.26
21240;BME280;10778;48.962;9.018;2023-07-09T10:19:23;99328.22;;;36.75;33.93
21240;BME280;10778;48.962;9.018;2023-07-09T10:22:02;99325.91;;;36.82;33.47
21240;BME280;10778;48.962;9.018;2023-07-09T10:27:16;99334.41;;;36.80;34.49
21240;BME280;10778;48.962;9.018;2023-07-09T10:35:11;99312.31;;;37.13;33.32
21240;BME280;10778;48.962;9.018;2023-07-09T10:37:49;99313.63;;;37.16;32.53
21240;BME280;10778;48.962;9.018;2023-07-09T10:40:25;99310.13;;;37.24;32.94
21240;BME280;10778;48.962;9.018;2023-07-09T10:42:59;99308.38;;;37.28;32.20
21240;BME280;10778;48.962;9.018;2023-07-09T10:45:36;99310.72;;;37.44;33.31
21240;BME280;10778;48.962;9.018;2023-07-09T10:48:17;99305.81;;;36.72;33.51
21240;BME280;10778;48.962;9.018;2023-07-09T10:50:48;99293.59;;;36.79;32.55
21240;BME280;10778;48.962;9.018;2023-07-09T10:53:36;99291.81;;;36.74;33.03
21240;BME280;10778;48.962;9.018;2023-07-09T10:56:11;99290.63;;;37.26;32.35
21240;BME280;10778;48.962;9.018;2023-07-09T11:01:32;99291.47;;;37.35;31.44
21240;BME280;10778;48.962;9.018;2023-07-09T11:04:04;99292.50;;;37.48;31.60
21240;BME280;10778;48.962;9.018;2023-07-09T11:06:35;99284.88;;;37.13;31.25
21240;BME280;10778;48.962;9.018;2023-07-09T11:09:29;99278.59;;;36.99;32.47
21240;BME280;10778;48.962;9.018;2023-07-09T11:11:58;99276.97;;;36.75;32.44
21240;BME280;10778;48.962;9.018;2023-07-09T11:14:33;99275.22;;;37.16;32.19
21240;BME280;10778;48.962;9.018;2023-07-09T11:17:01;99271.84;;;37.19;31.03
21240;BME280;10778;48.962;9.018;2023-07-09T11:19:28;99274.63;;;37.51;30.89
21240;BME280;10778;48.962;9.018;2023-07-09T11:22:12;99274.81;;;37.32;30.98
21240;BME280;10778;48.962;9.018;2023-07-09T11:24:51;99281.19;;;37.41;30.81
21240;BME280;10778;48.962;9.018;2023-07-09T11:29:46;99276.03;;;36.80;31.38
21240;BME280;10778;48.962;9.018;2023-07-09T11:32:22;99279.31;;;37.27;31.37
21240;BME280;10778;48.962;9.018;2023-07-09T11:34:48;99275.88;;;37.45;30.81
21240;BME280;10778;48.962;9.018;2023-07-09T11:37:15;99270.75;;;36.83;30.56
21240;BME280;10778;48.962;9.018;2023-07-09T11:39:45;99268.91;;;37.15;30.99
21240;BME280;10778;48.962;9.018;2023-07-09T11:44:57;99247.06;;;37.96;29.48
21240;BME280;10778;48.962;9.018;2023-07-09T11:47:28;99251.13;;;37.13;29.47
21240;BME280;10778;48.962;9.018;2023-07-09T11:50:01;99259.91;;;37.01;29.82
21240;BME280;10778;48.962;9.018;2023-07-09T11:55:14;99255.78;;;37.04;30.98
21240;BME280;10778;48.962;9.018;2023-07-09T11:57:52;99257.47;;;37.45;29.29
21240;BME280;10778;48.962;9.018;2023-07-09T12:00:18;99256.66;;;37.76;30.08
21240;BME280;10778;48.962;9.018;2023-07-09T12:02:44;99249.38;;;37.71;29.69
21240;BME280;10778;48.962;9.018;2023-07-09T12:05:11;99253.91;;;37.76;29.44
21240;BME280;10778;48.962;9.018;2023-07-09T12:07:38;99241.63;;;38.05;29.34
21240;BME280;10778;48.962;9.018;2023-07-09T12:10:17;99253.69;;;37.95;29.22
21240;BME280;10778;48.962;9.018;2023-07-09T12:12:44;99230.19;;;38.38;28.94
21240;BME280;10778;48.962;9.018;2023-07-09T12:15:19;99228.88;;;38.27;28.11
21240;BME280;10778;48.962;9.018;2023-07-09T12:17:57;99233.22;;;38.19;28.16
21240;BME280;10778;48.962;9.018;2023-07-09T12:20:24;99229.59;;;37.92;29.29
21240;BME280;10778;48.962;9.018;2023-07-09T12:22:50;99232.47;;;37.87;29.02
21240;BME280;10778;48.962;9.018;2023-07-09T12:25:25;99224.31;;;38.13;29.19
21240;BME280;10778;48.962;9.018;2023-07-09T12:27:53;99229.00;;;37.64;29.23
21240;BME280;10778;48.962;9.018;2023-07-09T12:30:19;99225.13;;;37.65;29.57
21240;BME280;10778;48.962;9.018;2023-07-09T12:32:47;99218.69;;;37.69;28.54
21240;BME280;10778;48.962;9.018;2023-07-09T12:35:16;99212.84;;;38.03;27.41
21240;BME280;10778;48.962;9.018;2023-07-09T12:37:44;99215.75;;;37.66;27.47
21240;BME280;10778;48.962;9.018;2023-07-09T12:40:21;99204.63;;;38.20;27.53
21240;BME280;10778;48.962;9.018;2023-07-09T12:42:47;99207.19;;;38.08;27.49
21240;BME280;10778;48.962;9.018;2023-07-09T12:45:15;99202.03;;;38.15;27.83
21240;BME280;10778;48.962;9.018;2023-07-09T12:47:42;99190.56;;;38.04;27.49
21240;BME280;10778;48.962;9.018;2023-07-09T12:50:30;99178.31;;;38.63;27.51
21240;BME280;10778;48.962;9.018;2023-07-09T12:53:00;99187.06;;;38.48;27.72
21240;BME280;10778;48.962;9.018;2023-07-09T12:55:41;99184.16;;;38.62;26.54
21240;BME280;10778;48.962;9.018;2023-07-09T12:58:11;99184.75;;;38.94;26.38
21240;BME280;10778;48.962;9.018;2023-07-09T13:00:41;99174.75;;;38.80;26.95
21240;BME280;10778;48.962;9.018;2023-07-09T13:03:13;99170.25;;;38.58;26.51
21240;BME280;10778;48.962;9.018;2023-07-09T13:05:51;99175.06;;;38.70;26.58
21240;BME280;10778;48.962;9.018;2023-07-09T13:08:18;99168.09;;;38.11;27.41
21240;BME280;10778;48.962;9.018;2023-07-09T13:10:44;99161.50;;;38.56;26.51
21240;BME280;10778;48.962;9.018;2023-07-09T13:13:12;99157.59;;;38.13;26.72
21240;BME280;10778;48.962;9.018;2023-07-09T13:15:41;99160.22;;;37.60;26.96
21240;BME280;10778;48.962;9.018;2023-07-09T13:18:13;99163.25;;;37.18;27.48
21240;BME280;10778;48.962;9.018;2023-07-09T13:20:41;99156.94;;;37.18;27.50
21240;BME280;10778;48.962;9.018;2023-07-09T13:23:14;99143.97;;;37.90;27.17
21240;BME280;10778;48.962;9.018;2023-07-09T13:25:40;99149.72;;;37.62;27.70
21240;BME280;10778;48.962;9.018;2023-07-09T13:28:29;99145.63;;;38.00;26.75
21240;BME280;10778;48.962;9.018;2023-07-09T13:30:58;99141.56;;;37.08;27.93
21240;BME280;10778;48.962;9.018;2023-07-09T13:33:25;99146.31;;;37.56;27.81
21240;BME280;10778;48.962;9.018;2023-07-09T13:35:52;99146.97;;;37.62;27.05
21240;BME280;10778;48.962;9.018;2023-07-09T13:38:21;99135.22;;;37.88;27.46
21240;BME280;10778;48.962;9.018;2023-07-09T13:40:50;99142.63;;;37.61;26.94
21240;BME280;10778;48.962;9.018;2023-07-09T13:43:27;99135.91;;;37.94;26.52
21240;BME280;10778;48.962;9.018;2023-07-09T13:45:54;99141.22;;;37.90;26.35